createdAt,value
2019-06-19T00:00:13.318Z,99550.59
2019-06-19T00:02:43.045Z,99556.16
2019-06-19T00:05:09.535Z,99549.27
2019-06-19T00:07:36.464Z,99554.21
2019-06-19T00:10:04.476Z,99551.19
2019-06-19T00:12:33.253Z,99547.31
2019-06-19T00:15:02.647Z,99544.28
2019-06-19T00:17:32.657Z,99543.77
2019-06-19T00:19:58.953Z,99534.58
2019-06-19T00:22:25.830Z,99536.73
2019-06-19T00:24:53.324Z,99532.80
2019-06-19T00:27:20.378Z,99527.63
2019-06-19T00:29:47.336Z,99518.78
2019-06-19T00:32:14.609Z,99525.72
2019-06-19T00:34:41.514Z,99513.89
2019-06-19T00:37:08.441Z,99521.77
2019-06-19T00:39:35.780Z,99519.34
2019-06-19T00:42:02.714Z,99514.88
2019-06-19T00:44:30.742Z,99515.95
2019-06-19T00:46:57.831Z,99508.34
2019-06-19T00:49:24.789Z,99514.24
2019-06-19T00:51:52.190Z,99509.19
2019-06-19T00:54:21.250Z,99513.02
2019-06-19T00:56:48.170Z,99509.12
2019-06-19T00:59:15.042Z,99506.73
2019-06-19T01:01:43.415Z,99503.66
2019-06-19T01:04:11.156Z,99500.52
2019-06-19T01:06:40.562Z,99502.94
2019-06-19T01:09:07.225Z,99506.30
2019-06-19T01:11:34.413Z,99502.77
2019-06-19T01:14:01.293Z,99500.48
2019-06-19T01:16:28.244Z,99504.94
2019-06-19T01:18:55.209Z,99502.20
2019-06-19T01:21:22.654Z,99495.53
2019-06-19T01:23:51.530Z,99497.37
2019-06-19T01:26:20.847Z,99491.25
2019-06-19T01:28:47.162Z,99488.16
2019-06-19T01:31:14.049Z,99493.14
2019-06-19T01:33:41.409Z,99491.95
2019-06-19T01:36:11.211Z,99494.89
2019-06-19T01:38:38.179Z,99493.72
2019-06-19T01:41:05.061Z,99496.22
2019-06-19T01:43:32.184Z,99495.89
2019-06-19T01:46:00.942Z,99486.39
2019-06-19T01:48:31.243Z,99490.25
2019-06-19T01:50:57.057Z,99491.30
2019-06-19T01:53:23.954Z,99493.86
2019-06-19T01:55:50.915Z,99485.25
2019-06-19T01:58:17.872Z,99484.56
2019-06-19T02:00:44.754Z,99485.65
2019-06-19T02:03:11.641Z,99478.98
2019-06-19T02:05:40.627Z,99478.38
2019-06-19T02:08:07.173Z,99477.74
2019-06-19T02:10:34.093Z,99477.28
2019-06-19T02:13:01.061Z,99475.32
2019-06-19T02:15:28.011Z,99470.38
2019-06-19T02:17:55.019Z,99471.78
2019-06-19T02:20:22.003Z,99469.31
2019-06-19T02:22:50.636Z,99468.78
2019-06-19T02:25:20.931Z,99462.47
2019-06-19T02:27:47.381Z,99462.03
2019-06-19T02:30:14.350Z,99464.73
2019-06-19T02:32:42.861Z,99463.02
2019-06-19T02:35:12.195Z,99462.27
2019-06-19T02:37:38.444Z,99466.47
2019-06-19T02:40:05.395Z,99465.84
2019-06-19T02:42:32.262Z,99467.16
2019-06-19T02:44:59.230Z,99467.63
2019-06-19T02:47:26.163Z,99463.25
2019-06-19T02:49:53.058Z,99459.87
2019-06-19T02:52:20.032Z,99461.25
2019-06-19T02:54:46.978Z,99461.42
2019-06-19T02:57:13.925Z,99463.08
2019-06-19T02:59:40.883Z,99464.04
2019-06-19T03:02:07.794Z,99461.72
2019-06-19T03:04:34.731Z,99460.59
2019-06-19T03:07:01.676Z,99459.29
2019-06-19T03:09:28.606Z,99456.25
2019-06-19T03:11:55.481Z,99453.95
2019-06-19T03:14:22.376Z,99459.60
2019-06-19T03:16:49.320Z,99460.75
2019-06-19T03:19:16.337Z,99454.13
2019-06-19T03:21:43.560Z,99457.19
2019-06-19T03:24:10.511Z,99457.19
2019-06-19T03:26:37.373Z,99450.11
2019-06-19T03:29:04.263Z,99453.65
2019-06-19T03:31:35.404Z,99453.73
2019-06-19T03:33:59.781Z,99449.75
2019-06-19T03:36:26.719Z,99457.37
2019-06-19T03:38:53.772Z,99456.86
2019-06-19T03:41:20.733Z,99442.42
2019-06-19T03:43:47.688Z,99446.09
2019-06-19T03:46:14.652Z,99440.07
2019-06-19T03:48:41.585Z,99438.52
2019-06-19T03:51:08.457Z,99437.83
2019-06-19T03:53:35.343Z,99442.18
2019-06-19T03:56:02.301Z,99435.90
2019-06-19T03:58:29.317Z,99433.86
2019-06-19T04:00:56.205Z,99437.95
2019-06-19T04:03:23.089Z,99433.98
2019-06-19T04:05:50.164Z,99425.70
2019-06-19T04:08:17.048Z,99429.39
2019-06-19T04:10:44.191Z,99434.14
2019-06-19T04:13:11.110Z,99433.92
2019-06-19T04:15:37.969Z,99432.82
2019-06-19T04:18:04.889Z,99429.16
2019-06-19T04:20:32.133Z,99430.91
2019-06-19T04:22:59.129Z,99423.77
2019-06-19T04:25:26.126Z,99417.10
2019-06-19T04:27:53.121Z,99418.84
2019-06-19T04:30:20.274Z,99420.03
2019-06-19T04:32:47.321Z,99422.27
2019-06-19T04:35:14.273Z,99412.41
2019-06-19T04:37:41.306Z,99422.28
2019-06-19T04:40:08.176Z,99424.22
2019-06-19T04:42:35.118Z,99419.30
2019-06-19T04:45:01.981Z,99420.33
2019-06-19T04:47:28.891Z,99419.58
2019-06-19T04:49:55.848Z,99421.42
2019-06-19T04:52:22.783Z,99418.97
2019-06-19T04:54:49.660Z,99424.49
2019-06-19T04:57:16.921Z,99415.77
2019-06-19T04:59:44.182Z,99421.06
2019-06-19T05:02:20.642Z,99414.05
2019-06-19T05:04:39.728Z,99417.05
2019-06-19T05:07:06.703Z,99417.28
2019-06-19T05:09:33.610Z,99415.30
2019-06-19T05:12:00.670Z,99415.53
2019-06-19T05:14:27.663Z,99409.75
2019-06-19T05:16:55.046Z,99411.65
2019-06-19T05:19:21.931Z,99413.81
2019-06-19T05:21:48.902Z,99417.91
2019-06-19T05:24:15.765Z,99410.12
2019-06-19T05:26:42.663Z,99414.89
2019-06-19T05:29:09.620Z,99409.77
2019-06-19T05:31:36.485Z,99410.53
2019-06-19T05:34:03.447Z,99405.06
2019-06-19T05:36:30.508Z,99403.29
2019-06-19T05:38:57.394Z,99403.83
2019-06-19T05:41:26.701Z,99399.47
2019-06-19T05:43:53.660Z,99403.23
2019-06-19T05:46:20.591Z,99405.09
2019-06-19T05:48:47.774Z,99400.19
2019-06-19T05:51:14.659Z,99402.73
2019-06-19T05:53:41.714Z,99402.92
2019-06-19T05:56:08.673Z,99400.50
2019-06-19T05:58:35.530Z,99399.44
2019-06-19T06:01:02.398Z,99401.63
2019-06-19T06:03:29.267Z,99397.70
2019-06-19T06:05:56.270Z,99396.83
2019-06-19T06:08:23.260Z,99399.50
2019-06-19T06:10:50.167Z,99396.52
2019-06-19T06:13:17.435Z,99393.27
2019-06-19T06:15:44.317Z,99394.34
2019-06-19T06:18:11.839Z,99388.08
2019-06-19T06:20:38.935Z,99393.13
2019-06-19T06:23:05.826Z,99388.34
2019-06-19T06:25:33.123Z,99398.78
2019-06-19T06:28:00.467Z,99394.77
2019-06-19T06:30:27.524Z,99397.58
2019-06-19T06:33:07.827Z,99401.71
2019-06-19T06:35:23.326Z,99396.66
2019-06-19T06:37:50.198Z,99401.81
2019-06-19T06:40:17.062Z,99399.66
2019-06-19T06:42:44.890Z,99396.88
2019-06-19T06:45:12.848Z,99394.55
2019-06-19T06:47:39.878Z,99392.25
2019-06-19T06:50:06.800Z,99397.63
2019-06-19T06:52:33.669Z,99395.98
2019-06-19T06:55:00.628Z,99397.53
2019-06-19T06:57:27.580Z,99399.03
2019-06-19T06:59:54.465Z,99398.05
2019-06-19T07:02:21.428Z,99390.52
2019-06-19T07:04:48.368Z,99392.28
2019-06-19T07:07:15.568Z,99391.13
2019-06-19T07:09:42.465Z,99384.41
2019-06-19T07:12:09.787Z,99385.05
2019-06-19T07:14:36.760Z,99383.34
2019-06-19T07:17:03.629Z,99387.34
2019-06-19T07:19:30.788Z,99388.75
2019-06-19T07:21:57.705Z,99382.83
2019-06-19T07:24:24.684Z,99381.73
2019-06-19T07:26:53.298Z,99379.80
2019-06-19T07:29:20.389Z,99378.23
2019-06-19T07:31:47.261Z,99374.16
2019-06-19T07:34:14.197Z,99375.27
2019-06-19T07:36:41.547Z,99372.48
2019-06-19T07:39:08.845Z,99371.13
2019-06-19T07:41:36.018Z,99370.84
2019-06-19T07:44:02.970Z,99366.77
2019-06-19T07:46:30.805Z,99365.84
2019-06-19T07:48:57.688Z,99356.99
2019-06-19T07:51:24.666Z,99362.70
2019-06-19T07:53:51.589Z,99354.31
2019-06-19T07:56:18.477Z,99353.12
2019-06-19T07:58:46.713Z,99352.77
2019-06-19T08:01:13.809Z,99347.31
2019-06-19T08:03:56.766Z,99348.05
2019-06-19T08:06:09.327Z,99348.91
2019-06-19T08:08:36.261Z,99348.55
2019-06-19T08:11:03.132Z,99344.03
2019-06-19T08:13:30.019Z,99343.53
2019-06-19T08:15:56.984Z,99346.45
2019-06-19T08:18:23.946Z,99343.67
2019-06-19T08:20:50.900Z,99341.03
2019-06-19T08:23:18.165Z,99338.26
2019-06-19T08:25:45.330Z,99334.92
2019-06-19T08:28:12.300Z,99331.39
2019-06-19T08:30:40.322Z,99337.70
2019-06-19T08:33:07.258Z,99327.36
2019-06-19T08:35:34.219Z,99324.47
2019-06-19T08:38:01.293Z,99322.31
2019-06-19T08:40:28.243Z,99322.28
2019-06-19T08:42:55.203Z,99315.33
2019-06-19T08:45:22.145Z,99311.73
2019-06-19T08:47:49.083Z,99311.66
2019-06-19T08:50:18.370Z,99312.09
2019-06-19T08:52:44.645Z,99311.84
2019-06-19T08:55:11.600Z,99308.59
2019-06-19T08:57:38.653Z,99309.39
2019-06-19T09:00:05.695Z,99301.42
2019-06-19T09:02:32.657Z,99310.09
2019-06-19T09:04:59.576Z,99307.95
2019-06-19T09:07:26.463Z,99306.10
2019-06-19T09:09:53.440Z,99299.70
2019-06-19T09:12:20.645Z,99297.95
2019-06-19T09:14:47.536Z,99306.06
2019-06-19T09:17:14.475Z,99293.08
2019-06-19T09:19:42.506Z,99299.55
2019-06-19T09:22:09.834Z,99293.29
2019-06-19T09:24:37.804Z,99298.86
2019-06-19T09:27:04.688Z,99297.09
2019-06-19T09:29:31.558Z,99295.88
2019-06-19T09:31:58.448Z,99290.91
2019-06-19T09:34:26.470Z,99292.21
2019-06-19T09:36:53.374Z,99295.25
2019-06-19T09:39:20.337Z,99286.84
2019-06-19T09:41:47.359Z,99297.52
2019-06-19T09:44:14.229Z,99292.56
2019-06-19T09:46:41.117Z,99294.25
2019-06-19T09:49:08.068Z,99283.17
2019-06-19T09:51:35.008Z,99284.06
2019-06-19T09:54:04.499Z,99276.82
2019-06-19T09:56:30.798Z,99280.59
2019-06-19T09:58:58.806Z,99274.09
2019-06-19T10:01:25.704Z,99276.09
2019-06-19T10:03:52.673Z,99278.16
2019-06-19T10:06:19.605Z,99272.98
2019-06-19T10:08:46.461Z,99281.86
2019-06-19T10:11:13.366Z,99276.39
2019-06-19T10:13:40.381Z,99282.64
2019-06-19T10:16:07.365Z,99280.38
2019-06-19T10:18:34.332Z,99277.95
2019-06-19T10:21:01.285Z,99276.91
2019-06-19T10:23:28.158Z,99274.53
2019-06-19T10:25:55.161Z,99278.72
2019-06-19T10:28:22.100Z,99267.50
2019-06-19T10:30:48.966Z,99274.48
2019-06-19T10:33:15.834Z,99265.64
2019-06-19T10:35:42.890Z,99264.80
2019-06-19T10:38:09.834Z,99271.36
2019-06-19T10:40:37.066Z,99273.54
2019-06-19T10:43:03.951Z,99270.66
2019-06-19T10:45:31.258Z,99266.42
2019-06-19T10:47:58.227Z,99262.91
2019-06-19T10:50:25.159Z,99264.72
2019-06-19T10:52:52.034Z,99265.28
2019-06-19T10:55:18.971Z,99256.79
2019-06-19T10:57:45.845Z,99259.89
2019-06-19T11:00:12.754Z,99263.61
2019-06-19T11:02:39.680Z,99266.63
2019-06-19T11:05:06.626Z,99269.95
2019-06-19T11:07:33.499Z,99278.73
2019-06-19T11:10:00.396Z,99271.89
2019-06-19T11:12:27.352Z,99268.09
2019-06-19T11:14:54.305Z,99277.23
2019-06-19T11:17:21.264Z,99281.57
2019-06-19T11:19:48.235Z,99277.34
2019-06-19T11:22:15.196Z,99275.44
2019-06-19T11:24:42.096Z,99269.91
2019-06-19T11:27:09.064Z,99267.00
2019-06-19T11:29:35.989Z,99267.45
2019-06-19T11:32:02.883Z,99276.28
2019-06-19T11:34:29.814Z,99274.64
2019-06-19T11:36:56.703Z,99277.55
2019-06-19T11:39:23.666Z,99271.19
2019-06-19T11:41:50.616Z,99267.88
2019-06-19T11:44:17.862Z,99267.09
2019-06-19T11:46:44.727Z,99266.54
2019-06-19T11:49:11.610Z,99268.00
2019-06-19T11:51:38.497Z,99267.44
2019-06-19T11:54:05.461Z,99271.21
2019-06-19T11:56:32.422Z,99267.58
2019-06-19T11:58:59.365Z,99270.30
2019-06-19T12:01:26.228Z,99274.40
2019-06-19T12:03:53.121Z,99273.89
2019-06-19T12:06:20.084Z,99275.51
2019-06-19T12:08:47.011Z,99274.31
2019-06-19T12:11:15.055Z,99274.78
2019-06-19T12:13:43.667Z,99272.98
2019-06-19T12:16:10.632Z,99274.11
2019-06-19T12:18:37.584Z,99266.92
2019-06-19T12:21:04.912Z,99266.72
2019-06-19T12:23:32.926Z,99267.28
2019-06-19T12:25:59.880Z,99262.62
2019-06-19T12:28:26.858Z,99254.53
2019-06-19T12:30:53.742Z,99256.28
2019-06-19T12:33:21.077Z,99255.47
2019-06-19T12:35:48.420Z,99266.39
2019-06-19T12:38:15.563Z,99265.42
2019-06-19T12:40:42.474Z,99257.66
2019-06-19T12:43:09.409Z,99258.01
2019-06-19T12:45:36.376Z,99263.13
2019-06-19T12:48:03.344Z,99249.54
2019-06-19T12:50:30.277Z,99243.83
2019-06-19T12:52:57.295Z,99243.48
2019-06-19T12:55:26.740Z,99237.95
2019-06-19T12:57:52.848Z,99237.57
2019-06-19T13:00:19.802Z,99234.42
2019-06-19T13:02:46.764Z,99237.75
2019-06-19T13:05:13.708Z,99233.61
2019-06-19T13:07:40.718Z,99227.66
2019-06-19T13:10:07.934Z,99235.36
2019-06-19T13:12:35.377Z,99227.33
2019-06-19T13:15:02.424Z,99225.19
2019-06-19T13:17:29.358Z,99230.29
2019-06-19T13:19:56.505Z,99228.16
2019-06-19T13:22:23.385Z,99219.05
2019-06-19T13:24:50.410Z,99222.13
2019-06-19T13:27:17.346Z,99219.78
2019-06-19T13:29:44.496Z,99218.27
2019-06-19T13:32:11.371Z,99217.84
2019-06-19T13:34:38.312Z,99219.23
2019-06-19T13:37:08.193Z,99215.66
2019-06-19T13:39:34.885Z,99215.36
2019-06-19T13:42:01.822Z,99215.95
2019-06-19T13:44:28.701Z,99209.11
2019-06-19T13:46:55.581Z,99210.48
2019-06-19T13:49:22.552Z,99209.97
2019-06-19T13:51:49.742Z,99214.92
2019-06-19T13:54:30.301Z,99208.30
2019-06-19T13:56:45.482Z,99203.91
2019-06-19T13:59:12.354Z,99204.71
2019-06-19T14:01:39.509Z,99211.15
2019-06-19T14:04:06.769Z,99199.23
2019-06-19T14:06:34.603Z,99207.27
2019-06-19T14:09:01.868Z,99202.09
2019-06-19T14:11:30.434Z,99197.70
2019-06-19T14:13:57.318Z,99200.16
2019-06-19T14:16:24.288Z,99196.27
2019-06-19T14:18:51.611Z,99197.86
2019-06-19T14:21:18.634Z,99186.68
2019-06-19T14:23:45.553Z,99190.59
2019-06-19T14:26:12.469Z,99188.73
2019-06-19T14:28:39.447Z,99183.15
2019-06-19T14:31:06.401Z,99178.41
2019-06-19T14:33:33.395Z,99176.79
2019-06-19T14:36:00.629Z,99175.28
2019-06-19T14:38:27.773Z,99173.85
2019-06-19T14:40:54.686Z,99172.26
2019-06-19T14:43:21.636Z,99165.42
2019-06-19T14:45:49.553Z,99163.42
2019-06-19T14:48:16.473Z,99158.12
2019-06-19T14:50:43.357Z,99154.15
2019-06-19T14:53:10.243Z,99149.79
2019-06-19T14:55:37.440Z,99152.00
2019-06-19T14:58:04.699Z,99142.65
2019-06-19T15:00:31.655Z,99144.45
2019-06-19T15:02:58.745Z,99135.11
2019-06-19T15:05:25.712Z,99129.80
2019-06-19T15:07:58.207Z,99133.36
2019-06-19T15:10:21.215Z,99130.31
2019-06-19T15:12:48.227Z,99128.37
2019-06-19T15:15:15.558Z,99135.56
2019-06-19T15:17:42.487Z,99130.22
2019-06-19T15:20:09.422Z,99128.20
2019-06-19T15:22:37.440Z,99129.09
2019-06-19T15:25:04.377Z,99127.58
2019-06-19T15:27:32.542Z,99130.80
2019-06-19T15:29:59.503Z,99117.37
2019-06-19T15:32:26.427Z,99121.55
2019-06-19T15:34:53.605Z,99129.20
2019-06-19T15:37:20.580Z,99131.46
2019-06-19T15:39:47.630Z,99127.69
2019-06-19T15:42:14.583Z,99122.91
2019-06-19T15:44:41.539Z,99123.48
2019-06-19T15:47:08.497Z,99125.34
2019-06-19T15:49:35.458Z,99127.36
2019-06-19T15:52:02.734Z,99133.89
2019-06-19T15:54:30.754Z,99133.38
2019-06-19T15:56:57.940Z,99127.29
2019-06-19T15:59:24.910Z,99131.73
2019-06-19T16:01:51.868Z,99128.39
2019-06-19T16:04:19.098Z,99128.81
2019-06-19T16:06:46.085Z,99128.15
2019-06-19T16:09:13.047Z,99121.80
2019-06-19T16:11:40.038Z,99117.73
2019-06-19T16:14:07.017Z,99115.72
2019-06-19T16:16:33.898Z,99111.33
2019-06-19T16:19:01.194Z,99113.12
2019-06-19T16:21:28.175Z,99110.81
2019-06-19T16:23:55.143Z,99104.03
2019-06-19T16:26:22.086Z,99108.52
2019-06-19T16:28:49.074Z,99110.39
2019-06-19T16:31:16.418Z,99104.64
2019-06-19T16:33:43.327Z,99097.45
2019-06-19T16:36:10.300Z,99102.52
2019-06-19T16:38:46.915Z,99101.71
2019-06-19T16:41:06.234Z,99106.47
2019-06-19T16:43:33.168Z,99104.23
2019-06-19T16:46:00.246Z,99093.42
2019-06-19T16:48:27.218Z,99093.00
2019-06-19T16:50:54.852Z,99088.44
2019-06-19T16:53:21.798Z,99087.70
2019-06-19T16:55:48.666Z,99086.31
2019-06-19T16:58:15.660Z,99087.72
2019-06-19T17:00:42.637Z,99084.29
2019-06-19T17:03:09.958Z,99086.39
2019-06-19T17:05:37.238Z,99089.21
2019-06-19T17:08:04.208Z,99087.57
2019-06-19T17:10:31.143Z,99086.73
2019-06-19T17:12:58.142Z,99086.53
2019-06-19T17:15:25.127Z,99086.42
2019-06-19T17:17:52.069Z,99093.16
2019-06-19T17:20:18.981Z,99093.66
2019-06-19T17:22:45.894Z,99089.55
2019-06-19T17:25:12.868Z,99087.98
2019-06-19T17:27:39.828Z,99087.48
2019-06-19T17:30:06.824Z,99084.83
2019-06-19T17:32:33.736Z,99086.97
2019-06-19T17:35:00.679Z,99091.00
2019-06-19T17:37:27.561Z,99093.59
2019-06-19T17:39:54.538Z,99089.09
2019-06-19T17:42:21.485Z,99089.20
2019-06-19T17:44:48.441Z,99085.58
2019-06-19T17:47:15.417Z,99087.83
2019-06-19T17:49:42.439Z,99100.64
2019-06-19T17:52:09.347Z,99100.48
2019-06-19T17:54:36.332Z,99095.58
2019-06-19T17:57:05.233Z,99093.87
2019-06-19T17:59:31.849Z,99101.81
2019-06-19T18:01:58.807Z,99100.03
2019-06-19T18:04:25.836Z,99104.75
2019-06-19T18:06:52.859Z,99101.49
2019-06-19T18:09:19.821Z,99086.81
2019-06-19T18:11:47.121Z,99094.63
2019-06-19T18:14:14.042Z,99091.55
2019-06-19T18:16:41.426Z,99091.00
2019-06-19T18:19:08.775Z,99092.94
2019-06-19T18:21:36.880Z,99095.85
2019-06-19T18:24:04.030Z,99098.78
2019-06-19T18:26:30.999Z,99093.63
2019-06-19T18:28:57.984Z,99092.86
2019-06-19T18:31:24.932Z,99090.83
2019-06-19T18:33:51.889Z,99092.80
2019-06-19T18:36:18.793Z,99095.67
2019-06-19T18:38:46.753Z,99096.08
2019-06-19T18:41:13.696Z,99085.84
2019-06-19T18:43:40.585Z,99083.03
2019-06-19T18:46:07.532Z,99090.61
2019-06-19T18:48:34.406Z,99087.59
2019-06-19T18:51:01.780Z,99088.27
2019-06-19T18:53:28.950Z,99088.36
2019-06-19T18:55:56.408Z,99089.09
2019-06-19T18:58:23.357Z,99100.47
2019-06-19T19:00:50.542Z,99100.98
2019-06-19T19:03:17.511Z,99112.66
2019-06-19T19:05:44.496Z,99116.47
2019-06-19T19:08:11.475Z,99122.79
2019-06-19T19:10:38.406Z,99132.37
2019-06-19T19:13:05.273Z,99129.50
2019-06-19T19:15:32.186Z,99140.14
2019-06-19T19:17:59.160Z,99143.98
2019-06-19T19:20:26.401Z,99148.00
2019-06-19T19:22:53.578Z,99145.00
2019-06-19T19:25:20.529Z,99149.54
2019-06-19T19:27:47.570Z,99149.81
2019-06-19T19:30:15.424Z,99146.44
2019-06-19T19:32:42.385Z,99154.13
2019-06-19T19:35:09.417Z,99156.89
2019-06-19T19:37:36.377Z,99157.05
2019-06-19T19:40:03.293Z,99161.87
2019-06-19T19:42:30.248Z,99159.05
2019-06-19T19:44:57.605Z,99153.88
2019-06-19T19:47:24.518Z,99153.08
2019-06-19T19:49:51.646Z,99158.47
2019-06-19T19:52:18.607Z,99162.64
2019-06-19T19:54:45.508Z,99170.84
2019-06-19T19:57:12.467Z,99180.28
2019-06-19T19:59:41.343Z,99178.16
2019-06-19T20:02:07.987Z,99181.86
2019-06-19T20:04:34.866Z,99179.14
2019-06-19T20:07:01.806Z,99176.16
2019-06-19T20:09:28.765Z,99172.06
2019-06-19T20:11:55.795Z,99166.20
2019-06-19T20:14:22.734Z,99171.63
2019-06-19T20:16:49.666Z,99166.86
2019-06-19T20:19:16.568Z,99162.78
2019-06-19T20:21:43.536Z,99166.45
2019-06-19T20:24:10.492Z,99158.53
2019-06-19T20:26:37.475Z,99162.48
2019-06-19T20:29:04.679Z,99159.27
2019-06-19T20:31:31.622Z,99165.32
2019-06-19T20:33:58.647Z,99164.77
2019-06-19T20:36:25.553Z,99156.46
2019-06-19T20:38:52.503Z,99155.52
2019-06-19T20:41:19.462Z,99150.45
2019-06-19T20:43:46.345Z,99151.07
2019-06-19T20:46:24.613Z,99149.39
2019-06-19T20:48:41.868Z,99146.81
2019-06-19T20:51:08.829Z,99139.06
2019-06-19T20:53:35.979Z,99144.34
2019-06-19T20:56:02.891Z,99135.45
2019-06-19T20:58:29.847Z,99135.62
2019-06-19T21:00:56.767Z,99134.33
2019-06-19T21:03:24.179Z,99133.95
2019-06-19T21:05:51.531Z,99127.03
2019-06-19T21:08:18.478Z,99129.22
2019-06-19T21:10:45.428Z,99120.33
2019-06-19T21:13:12.688Z,99126.50
2019-06-19T21:15:44.131Z,99129.06
2019-06-19T21:18:08.350Z,99127.09
2019-06-19T21:20:35.271Z,99129.66
2019-06-19T21:23:02.180Z,99126.05
2019-06-19T21:25:29.145Z,99129.05
2019-06-19T21:27:57.508Z,99135.27
2019-06-19T21:30:24.443Z,99134.02
2019-06-19T21:32:51.396Z,99136.50
2019-06-19T21:35:18.363Z,99135.95
2019-06-19T21:37:45.299Z,99137.69
2019-06-19T21:40:12.169Z,99141.75
2019-06-19T21:42:39.116Z,99143.70
2019-06-19T21:45:07.728Z,99134.30
2019-06-19T21:47:34.972Z,99129.70
2019-06-19T21:50:01.973Z,99127.31
2019-06-19T21:52:28.973Z,99126.91
2019-06-19T21:54:56.192Z,99133.39
2019-06-19T21:57:23.106Z,99134.77
2019-06-19T21:59:50.601Z,99126.56
2019-06-19T22:02:17.576Z,99132.19
2019-06-19T22:04:44.545Z,99134.48
2019-06-19T22:07:15.163Z,99136.86
2019-06-19T22:09:40.192Z,99131.39
2019-06-19T22:12:07.141Z,99135.34
2019-06-19T22:14:34.110Z,99131.32
2019-06-19T22:17:02.146Z,99130.02
2019-06-19T22:19:29.086Z,99122.28
2019-06-19T22:21:55.962Z,99123.55
2019-06-19T22:24:23.921Z,99119.50
2019-06-19T22:26:50.882Z,99124.13
2019-06-19T22:29:17.836Z,99131.85
2019-06-19T22:31:44.786Z,99123.17
2019-06-19T22:34:11.650Z,99123.67
2019-06-19T22:36:38.578Z,99119.91
2019-06-19T22:39:05.533Z,99122.26
2019-06-19T22:41:34.096Z,99120.52
2019-06-19T22:44:01.378Z,99117.91
2019-06-19T22:46:28.278Z,99118.73
2019-06-19T22:48:55.163Z,99119.31
2019-06-19T22:51:22.122Z,99127.88
2019-06-19T22:53:49.010Z,99126.87
2019-06-19T22:56:15.945Z,99127.94
2019-06-19T22:58:42.880Z,99127.06
2019-06-19T23:01:09.759Z,99130.55
2019-06-19T23:03:36.651Z,99129.97
2019-06-19T23:06:04.014Z,99130.33
2019-06-19T23:08:30.980Z,99133.16
2019-06-19T23:10:57.918Z,99133.08
2019-06-19T23:13:24.814Z,99134.18
2019-06-19T23:15:51.772Z,99138.56
2019-06-19T23:18:19.097Z,99141.77
2019-06-19T23:20:46.049Z,99136.80
2019-06-19T23:23:12.952Z,99132.75
2019-06-19T23:25:39.906Z,99141.47
2019-06-19T23:28:06.797Z,99146.73
2019-06-19T23:30:33.752Z,99170.37
2019-06-19T23:33:00.742Z,99198.02
2019-06-19T23:35:27.680Z,99192.94
2019-06-19T23:37:54.625Z,99181.44
2019-06-19T23:42:48.185Z,99192.95
2019-06-19T23:45:15.068Z,99189.28
2019-06-19T23:47:42.040Z,99176.50
2019-06-19T23:50:09.007Z,99180.56
2019-06-19T23:52:35.954Z,99190.84
2019-06-19T23:55:02.819Z,99192.80
2019-06-19T23:57:29.718Z,99192.38
2019-06-19T23:59:56.689Z,99195.69
